LEAM Airport Information

Runway Information
Runway 08 Length 10499 ft width 148 ft
Elevation 26 ft Threshold 492 ft Heading 73
Runway 26 Length 10499 ft Width 148 ft
Elevation 70 ft Threshold 0 ft Heading 253
Airport Frequencies
Type APP Name APP Frequency 118.35 MHZ
Type GND Name GND Frequency 121.7 MHZ
Type TWR Name TWR Frequency 118.35 MHZ
Airport Navaids
Type NDB Name Almeria Frequency 284 KHZ
Type NDB Name Almeria Frequency 310 KHZ
Type VOR-DME Name Almeria Frequency 114100 KHZ
Airport Weather Information & NOTAM
ADDS - METARS form results

(0222 UTC 17 November 2018)
Data provider http://aviationweather.gov/metar/data/
 
METAR text: LEAM 170200Z AUTO 36005KT 270V050 9999 ////// 18/12 Q1015
Conditions at: LEAM (ALMERIA AIRPORT , ES) observed 0200 UTC 17 November 2018
Temperature: 18.0°C (64°F)
Dewpoint: 12.0°C (54°F) [RH = 68%]
Pressure (altimeter): 29.97 inches Hg (1015.0 mb)
Winds: from the N (360 degrees) at 6 MPH (5 knots; 2.6 m/s)
Visibility: 6 or more miles (10+ km)
Ceiling: unknown
Clouds: missing
Weather: no significant weather observed at this time

METAR text: LEAM 170130Z AUTO 03006KT 360V070 9999 ////// 19/13 Q1015
Conditions at: LEAM (ALMERIA AIRPORT , ES) observed 0130 UTC 17 November 2018
Temperature: 19.0°C (66°F)
Dewpoint: 13.0°C (55°F) [RH = 68%]
Pressure (altimeter): 29.97 inches Hg (1015.0 mb)
Winds: from the NNE (30 degrees) at 7 MPH (6 knots; 3.1 m/s)
Visibility: 6 or more miles (10+ km)
Ceiling: unknown
Clouds: missing
Weather: no significant weather observed at this time

Forecast for: LEAM (ALMERIA AIRPORT , ES)
Text: TAF LEAM 162000Z 1621/1721 06010KT 9999 FEW020 SCT060 TX21/1714Z TN15/1706Z
Forecast period: 2100 UTC 16 November 2018 to 2100 UTC 17 November 2018
Forecast type: FROM: standard forecast or significant change
Winds: from the ENE (60 degrees) at 12 MPH (10 knots; 5.1 m/s)
Visibility: 6 or more miles 10+ km)
Ceiling: at least 12,000 feet AGL
Clouds: few clouds at 2000 feet AGL
scattered clouds at 6000 feet AGL
Weather: no significant weather forecast for this period
Text: PROB30
Forecast period: 2100 UTC 16 November 2018 to 0800 UTC 17 November 2018
Forecast type: TEMPORARY: The following changes expected for less than half the time period
Winds: from the NNW (340 degrees) at 9 MPH (8 knots; 4.1 m/s)
Visibility: missing
Ceiling: unknown
Clouds: missing
Weather: no significant weather forecast for this period
Text: TEMPO 1621/1708 34008KT
Forecast period: 1000 to 1600 UTC 17 November 2018
Forecast type: TEMPORARY: The following changes expected for less than half the time period
Winds: from the ENE (70 degrees) at 17 MPH (15 knots; 7.7 m/s)
gusting to 29 MPH (25 knots; 12.9 m/s)
Visibility: missing
Ceiling: unknown
Clouds: missing
Weather: no significant weather forecast for this period